Time;durP1;ratioP1;P1;durP2;ratioP2;P2;SDS_P1;SDS_P2;PMS_P1;PMS_P2;Temp;Humidity;BMP_temperature;BMP_pressure;BME280_temperature;BME280_humidity;BME280_pressure;Samples;Min_cycle;Max_cycle;Signal;HPM_P1;HPM_P2
2022/08/29 00:00:12;;;;;;;;;8.00;8.00;;;;;25.52;60.80;99938.28;5027140;28;46037;-71
2022/08/29 00:02:40;;;;;;;;;7.00;7.00;;;;;25.49;60.44;99939.31;5029845;28;45616;-72
2022/08/29 00:05:06;;;;;;;;;8.67;8.00;;;;;25.38;60.63;99925.50;5018888;28;45489;-73
2022/08/29 00:07:32;;;;;;;;;7.00;7.00;;;;;25.44;59.95;99921.69;5018052;28;47178;-71
2022/08/29 00:09:58;;;;;;;;;7.67;7.67;;;;;25.36;59.70;99911.31;5017570;28;45392;-72
2022/08/29 00:12:23;;;;;;;;;7.00;7.00;;;;;25.41;60.34;99922.72;5017623;28;45458;-72
2022/08/29 00:14:49;;;;;;;;;8.33;8.00;;;;;25.33;60.14;99912.31;5013719;28;45406;-70
2022/08/29 00:17:14;;;;;;;;;7.00;7.00;;;;;25.38;60.32;99926.34;5016522;28;45403;-72
2022/08/29 00:19:40;;;;;;;;;7.33;7.33;;;;;25.34;60.00;99930.09;5016084;28;45429;-70
2022/08/29 00:22:05;;;;;;;;;9.67;9.00;;;;;25.34;60.53;99937.25;5004081;28;45497;-70
2022/08/29 00:24:31;;;;;;;;;8.00;8.00;;;;;25.32;60.34;99931.94;5011620;28;45396;-69
2022/08/29 00:26:59;;;;;;;;;9.00;8.00;;;;;25.30;60.55;99923.13;5017657;28;45316;-70
2022/08/29 00:29:25;;;;;;;;;8.00;7.33;;;;;25.27;60.34;99917.94;5015972;28;45439;-70
2022/08/29 00:31:51;;;;;;;;;9.00;7.67;;;;;25.28;60.51;99903.59;5008686;28;45493;-70
2022/08/29 00:34:17;;;;;;;;;9.00;8.00;;;;;25.24;60.47;99901.13;5016340;28;45455;-71
2022/08/29 00:36:42;;;;;;;;;7.67;6.67;;;;;25.28;61.27;99906.28;5017402;28;45510;-69
2022/08/29 00:39:08;;;;;;;;;8.00;8.00;;;;;25.19;61.77;99903.97;5015567;28;45909;-73
2022/08/29 00:41:33;;;;;;;;;7.00;6.00;;;;;25.06;62.39;99886.69;5008713;28;45553;-75
2022/08/29 00:43:59;;;;;;;;;7.67;7.33;;;;;25.05;62.73;99900.97;5016154;28;45518;-74
2022/08/29 00:46:37;;;;;;;;;9.67;9.00;;;;;25.04;62.09;99878.72;5012609;28;45514;-71
2022/08/29 00:49:12;;;;;;;;;9.00;9.00;;;;;24.73;63.11;99852.34;5012490;28;45449;-72
2022/08/29 00:51:40;;;;;;;;;9.67;9.67;;;;;24.76;63.10;99849.56;5016834;28;45604;-72
2022/08/29 00:54:09;;;;;;;;;8.00;8.00;;;;;24.85;63.16;99867.03;5012364;28;45462;-72
2022/08/29 00:56:38;;;;;;;;;9.00;8.33;;;;;24.88;62.16;99890.97;5010490;28;46070;-71
2022/08/29 00:59:23;;;;;;;;;9.00;9.00;;;;;24.86;63.19;99925.75;5031008;28;46654;-72
2022/08/29 01:01:48;;;;;;;;;10.67;9.33;;;;;24.84;62.77;99943.63;5008108;28;45336;-70
2022/08/29 01:04:15;;;;;;;;;9.00;9.00;;;;;24.74;62.64;99891.50;5016021;28;45706;-74
2022/08/29 01:06:42;;;;;;;;;10.00;8.33;;;;;24.64;63.04;99895.47;5010226;28;45391;-73
2022/08/29 01:09:08;;;;;;;;;8.67;8.00;;;;;24.51;62.49;99879.03;5029342;28;45863;-72
2022/08/29 01:14:22;;;;;;;;;7.33;7.33;;;;;24.72;62.02;99942.31;5016505;28;45530;-72
2022/08/29 01:16:51;;;;;;;;;7.00;7.00;;;;;24.81;61.22;99930.41;5016899;28;45501;-74
2022/08/29 01:19:53;;;;;;;;;7.33;6.67;;;;;24.80;60.46;99905.47;5012485;28;46224;-75
2022/08/29 01:22:39;;;;;;;;;6.00;6.00;;;;;24.95;59.50;99900.50;5006556;28;45426;-72
2022/08/29 01:25:11;;;;;;;;;8.00;6.00;;;;;24.97;59.05;99888.78;5016456;28;45414;-75
2022/08/29 01:27:41;;;;;;;;;7.00;6.00;;;;;25.01;57.26;99878.88;5022677;28;45819;-74
2022/08/29 01:30:08;;;;;;;;;5.00;5.00;;;;;24.99;55.58;99856.69;5014349;28;45519;-74
2022/08/29 01:32:34;;;;;;;;;8.00;8.00;;;;;25.08;56.54;99853.63;5009935;28;45374;-73
2022/08/29 01:35:00;;;;;;;;;7.00;6.33;;;;;25.12;56.83;99860.56;5010353;28;45498;-72
2022/08/29 01:37:30;;;;;;;;;6.00;6.00;;;;;25.12;56.29;99857.91;5006304;28;45514;-72
2022/08/29 01:39:56;;;;;;;;;5.00;5.00;;;;;25.08;55.40;99839.38;5025386;28;45542;-72
2022/08/29 01:42:23;;;;;;;;;5.00;5.00;;;;;25.10;55.39;99827.69;5012395;28;45555;-73
2022/08/29 01:44:55;;;;;;;;;6.00;6.00;;;;;25.16;55.88;99834.59;5011679;28;45596;-71
2022/08/29 01:47:23;;;;;;;;;4.67;4.67;;;;;25.23;54.93;99835.22;5017120;28;45544;-71
2022/08/29 01:49:49;;;;;;;;;5.00;5.00;;;;;25.13;54.03;99813.34;5015922;28;45476;-70
2022/08/29 01:52:15;;;;;;;;;4.00;3.33;;;;;25.00;52.98;99803.16;5015770;28;45432;-73
2022/08/29 01:54:42;;;;;;;;;6.00;4.33;;;;;25.19;52.08;99832.66;5004841;28;45866;-70
2022/08/29 01:57:09;;;;;;;;;4.00;4.00;;;;;25.24;52.44;99824.47;5015749;28;45700;-73
2022/08/29 01:59:35;;;;;;;;;4.00;3.33;;;;;25.18;51.90;99795.31;5015632;28;46928;-71
2022/08/29 02:02:09;;;;;;;;;5.00;4.00;;;;;25.22;53.81;99817.47;5016084;28;45820;-73
2022/08/29 02:04:35;;;;;;;;;4.00;4.00;;;;;25.07;53.23;99794.88;5014871;28;45404;-74
2022/08/29 02:07:01;;;;;;;;;3.00;3.00;;;;;25.23;51.54;99820.09;5017500;28;45315;-73
2022/08/29 02:09:27;;;;;;;;;3.00;3.00;;;;;25.18;51.14;99798.84;5015724;28;46474;-73
2022/08/29 02:11:55;;;;;;;;;4.00;4.00;;;;;25.30;49.86;99805.50;5017177;28;45582;-73
2022/08/29 02:14:22;;;;;;;;;3.33;3.33;;;;;25.35;49.11;99794.63;5019608;28;45684;-73
2022/08/29 02:16:48;;;;;;;;;3.33;3.00;;;;;25.43;47.72;99796.94;5014824;28;45360;-74
2022/08/29 02:19:14;;;;;;;;;1.67;1.67;;;;;25.51;46.50;99802.84;5011104;28;45233;-73
2022/08/29 02:21:40;;;;;;;;;2.00;2.00;;;;;25.54;47.27;99802.72;5013207;28;45585;-71
2022/08/29 02:24:06;;;;;;;;;3.33;3.00;;;;;25.59;47.89;99814.94;5014590;28;45562;-72
2022/08/29 02:26:32;;;;;;;;;2.33;2.00;;;;;25.62;48.54;99816.59;5026664;28;45396;-71
2022/08/29 02:28:58;;;;;;;;;0.67;0.67;;;;;25.65;46.15;99824.50;5018028;28;45507;-72
2022/08/29 02:31:24;;;;;;;;;3.33;3.00;;;;;25.71;46.79;99839.44;5012196;28;45384;-74
2022/08/29 02:33:51;;;;;;;;;3.00;3.00;;;;;25.67;48.54;99830.66;5019258;28;45237;-73
2022/08/29 02:36:18;;;;;;;;;2.00;1.33;;;;;25.66;46.80;99828.06;5011106;28;45381;-74
2022/08/29 02:38:43;;;;;;;;;1.67;1.67;;;;;25.67;45.76;99803.06;5024701;28;45374;-74
2022/08/29 02:41:09;;;;;;;;;1.00;1.00;;;;;25.77;44.48;99809.72;5035374;28;45748;-74
2022/08/29 02:43:35;;;;;;;;;1.00;0.67;;;;;25.76;44.56;99791.94;5017045;28;45608;-73
2022/08/29 02:46:00;;;;;;;;;1.00;1.00;;;;;25.83;45.50;99787.19;5018137;28;45490;-73
2022/08/29 02:48:26;;;;;;;;;0.00;0.00;;;;;25.86;44.57;99777.19;5010268;28;45518;-73
2022/08/29 02:50:55;;;;;;;;;1.00;1.00;;;;;25.94;45.24;99785.78;5014349;28;45429;-72
2022/08/29 02:53:23;;;;;;;;;0.00;0.00;;;;;25.90;44.59;99776.16;5018054;28;45618;-72
2022/08/29 02:55:50;;;;;;;;;0.00;0.00;;;;;25.99;44.84;99783.75;5023821;28;45514;-74
2022/08/29 02:58:17;;;;;;;;;1.00;0.00;;;;;25.87;44.94;99762.88;5018912;28;45458;-73
2022/08/29 03:00:42;;;;;;;;;1.00;1.00;;;;;25.91;44.97;99767.19;5014690;28;45439;-72
2022/08/29 03:03:08;;;;;;;;;0.00;0.00;;;;;25.96;45.49;99785.69;5008451;28;45450;-73
2022/08/29 03:05:36;;;;;;;;;0.00;0.00;;;;;25.92;44.97;99787.63;5028276;28;45529;-73
2022/08/29 03:08:05;;;;;;;;;0.00;0.00;;;;;26.02;44.83;99792.59;5008600;28;45677;-73
2022/08/29 03:10:30;;;;;;;;;1.00;1.00;;;;;25.84;47.05;99768.38;5018455;28;45564;-73
2022/08/29 03:12:56;;;;;;;;;1.00;1.00;;;;;25.84;47.06;99765.69;5016831;28;45568;-73
2022/08/29 03:15:22;;;;;;;;;1.00;1.00;;;;;25.73;46.03;99749.28;5012050;28;45448;-74
2022/08/29 03:17:49;;;;;;;;;0.00;0.00;;;;;25.70;45.38;99734.22;5018172;28;45412;-74
2022/08/29 03:20:17;;;;;;;;;2.00;2.00;;;;;25.90;42.40;99744.03;5014019;28;45540;-73
2022/08/29 03:22:44;;;;;;;;;0.00;0.00;;;;;25.95;44.28;99743.84;5018604;28;45498;-73
2022/08/29 03:25:12;;;;;;;;;1.00;0.00;;;;;25.92;44.76;99749.31;5018737;28;45389;-73
2022/08/29 03:27:38;;;;;;;;;1.00;1.00;;;;;25.85;43.59;99740.69;5018542;28;46575;-73
2022/08/29 03:30:06;;;;;;;;;1.00;1.00;;;;;25.82;42.96;99731.94;5018246;28;45425;-72
2022/08/29 03:32:32;;;;;;;;;0.00;0.00;;;;;25.91;42.93;99760.97;5019387;28;45569;-73
2022/08/29 03:34:57;;;;;;;;;1.00;1.00;;;;;25.89;42.55;99782.41;5033667;28;45482;-73
2022/08/29 03:37:25;;;;;;;;;1.00;1.00;;;;;25.82;47.18;99799.66;5011239;28;45533;-73
2022/08/29 03:39:50;;;;;;;;;1.00;1.00;;;;;25.62;47.86;99819.28;5025209;28;45371;-72
2022/08/29 03:42:16;;;;;;;;;1.00;1.00;;;;;25.37;46.20;99792.75;5013931;28;45517;-73
2022/08/29 03:44:42;;;;;;;;;1.00;1.00;;;;;25.56;45.34;99833.78;5011658;28;45459;-72
2022/08/29 03:47:08;;;;;;;;;1.00;1.00;;;;;25.59;46.06;99851.53;5015608;28;45415;-71
2022/08/29 03:49:34;;;;;;;;;1.00;1.00;;;;;25.62;45.94;99847.84;5013475;28;45559;-71
2022/08/29 03:52:00;;;;;;;;;2.00;2.00;;;;;25.55;45.70;99828.53;5018019;28;46100;-71
2022/08/29 03:54:26;;;;;;;;;1.33;1.33;;;;;25.72;45.93;99855.38;5012625;28;45519;-71
2022/08/29 03:56:52;;;;;;;;;2.00;2.00;;;;;25.68;45.70;99839.56;5013370;28;45490;-71
2022/08/29 03:59:18;;;;;;;;;1.33;1.33;;;;;25.66;45.29;99823.56;5011745;28;45431;-72
2022/08/29 04:01:46;;;;;;;;;2.00;2.00;;;;;25.76;45.89;99832.91;5009410;28;45357;-72
2022/08/29 04:05:05;;;;;;;;;1.00;1.00;;;;;25.71;46.18;99816.22;5008828;28;45526;-72
2022/08/29 04:06:58;;;;;;;;;2.00;2.00;;;;;25.76;45.12;99799.94;5012484;28;45691;-73
2022/08/29 04:09:24;;;;;;;;;1.33;1.00;;;;;25.76;44.55;99783.91;5018305;28;45535;-73
2022/08/29 04:11:50;;;;;;;;;1.00;1.00;;;;;25.74;45.11;99772.41;5017891;28;45371;-74
2022/08/29 04:14:15;;;;;;;;;1.00;1.00;;;;;25.74;45.78;99778.59;5017087;28;45495;-74
2022/08/29 04:16:41;;;;;;;;;2.00;2.00;;;;;25.68;45.87;99761.97;5018597;28;45885;-74
2022/08/29 04:19:06;;;;;;;;;1.00;1.00;;;;;25.82;44.01;99786.28;5017011;28;45499;-72
2022/08/29 04:21:33;;;;;;;;;2.00;2.00;;;;;25.85;43.77;99798.69;5018354;28;45538;-74
2022/08/29 04:23:59;;;;;;;;;2.33;1.33;;;;;25.88;42.95;99794.03;5018670;28;45563;-74
2022/08/29 04:26:24;;;;;;;;;2.67;2.00;;;;;25.88;42.01;99774.44;5017898;28;45371;-73
2022/08/29 04:28:51;;;;;;;;;2.00;2.00;;;;;25.90;41.55;99772.56;5017513;28;45376;-73
2022/08/29 04:31:19;;;;;;;;;0.67;0.67;;;;;25.93;40.50;99768.00;5017544;28;45312;-74
2022/08/29 04:33:48;;;;;;;;;1.00;1.00;;;;;26.15;40.94;99794.63;5017754;28;45546;-74
2022/08/29 04:36:15;;;;;;;;;1.00;1.00;;;;;26.19;40.55;99793.53;5017888;28;45474;-73
2022/08/29 04:38:40;;;;;;;;;1.00;1.00;;;;;26.15;41.17;99794.63;5017572;28;45421;-73
2022/08/29 04:41:08;;;;;;;;;1.67;1.00;;;;;26.15;41.31;99783.06;5018606;28;45490;-73
2022/08/29 04:43:34;;;;;;;;;1.67;1.67;;;;;26.14;41.18;99792.91;5018610;28;45538;-74
2022/08/29 04:46:00;;;;;;;;;2.00;2.00;;;;;26.19;41.43;99798.03;5017073;28;45783;-73
2022/08/29 04:48:26;;;;;;;;;2.00;2.00;;;;;26.15;41.20;99785.72;5017823;28;45231;-74
2022/08/29 04:50:55;;;;;;;;;2.00;2.00;;;;;26.20;41.42;99799.75;5017321;28;45423;-74
2022/08/29 04:53:20;;;;;;;;;2.00;2.00;;;;;26.20;41.83;99805.09;5018274;28;45254;-71
2022/08/29 04:55:56;;;;;;;;;4.00;3.00;;;;;26.22;41.75;99815.75;5017615;28;45984;-74
2022/08/29 04:58:23;;;;;;;;;2.33;2.00;;;;;26.08;42.61;99797.66;5017800;28;45572;-73
2022/08/29 05:00:48;;;;;;;;;2.00;2.00;;;;;26.16;42.95;99809.75;5016003;28;45484;-74
2022/08/29 05:03:14;;;;;;;;;3.00;3.00;;;;;26.04;41.87;99788.88;5016705;28;45458;-73
2022/08/29 05:05:40;;;;;;;;;4.00;4.00;;;;;26.10;41.66;99802.03;5017670;28;45485;-73
2022/08/29 05:08:05;;;;;;;;;2.00;2.00;;;;;26.19;42.61;99806.94;5017595;28;45408;-73
2022/08/29 05:10:32;;;;;;;;;2.33;2.33;;;;;26.17;42.66;99806.13;5016955;28;45561;-73
2022/08/29 05:12:58;;;;;;;;;3.67;3.00;;;;;26.15;43.11;99821.41;5017277;28;45496;-73
2022/08/29 05:15:23;;;;;;;;;2.00;2.00;;;;;26.10;43.00;99804.69;5016904;28;46165;-72
2022/08/29 05:17:49;;;;;;;;;2.67;2.33;;;;;26.18;42.77;99815.03;5017368;28;45465;-73
2022/08/29 05:20:15;;;;;;;;;3.00;3.00;;;;;26.17;42.40;99824.00;5017790;28;45537;-74
2022/08/29 05:22:42;;;;;;;;;3.00;3.00;;;;;26.16;42.30;99819.56;5017732;28;45482;-72
2022/08/29 05:25:09;;;;;;;;;4.00;3.67;;;;;26.25;41.39;99820.97;5017552;28;45482;-74
2022/08/29 05:27:35;;;;;;;;;4.00;4.00;;;;;26.22;40.71;99811.25;5016890;28;45556;-73
2022/08/29 05:30:01;;;;;;;;;7.33;6.67;;;;;26.25;41.04;99810.28;5014479;28;45402;-72
2022/08/29 05:32:27;;;;;;;;;6.00;6.00;;;;;26.03;41.27;99779.16;5014475;28;45438;-73
2022/08/29 05:34:52;;;;;;;;;4.00;3.00;;;;;26.14;43.26;99818.78;5014887;28;46301;-73
2022/08/29 05:37:19;;;;;;;;;3.67;3.00;;;;;26.10;43.89;99822.53;5015220;28;45698;-73
2022/08/29 05:39:46;;;;;;;;;3.00;3.00;;;;;26.05;45.45;99833.47;5016018;28;45658;-72
2022/08/29 05:42:12;;;;;;;;;2.00;2.00;;;;;25.83;43.21;99801.44;5015593;28;45391;-73
2022/08/29 05:44:39;;;;;;;;;4.67;3.33;;;;;25.92;42.10;99810.88;5015489;28;45846;-72
2022/08/29 05:47:07;;;;;;;;;4.33;4.00;;;;;26.03;42.29;99826.47;5015280;28;45471;-72
2022/08/29 05:49:38;;;;;;;;;4.67;4.00;;;;;25.87;45.37;99827.09;5013797;28;45828;-72
2022/08/29 05:52:05;;;;;;;;;3.00;3.00;;;;;25.77;44.54;99821.28;5010200;28;45407;-72
2022/08/29 05:54:34;;;;;;;;;4.00;4.00;;;;;25.81;45.09;99840.75;5030162;28;46272;-73
2022/08/29 05:56:59;;;;;;;;;3.67;3.00;;;;;25.71;45.56;99831.41;5011692;28;45412;-73
2022/08/29 05:59:25;;;;;;;;;4.00;4.00;;;;;25.69;45.53;99834.13;5014317;28;45892;-71
2022/08/29 06:01:51;;;;;;;;;3.67;3.67;;;;;25.68;45.76;99823.50;5014066;28;45436;-72
2022/08/29 06:04:17;;;;;;;;;3.00;3.00;;;;;25.57;45.97;99822.16;5012404;28;45485;-72
2022/08/29 06:06:43;;;;;;;;;3.67;3.00;;;;;25.57;46.84;99838.22;5014697;28;45443;-71
2022/08/29 06:09:11;;;;;;;;;3.00;3.00;;;;;25.43;44.47;99808.53;5014054;28;45479;-72
2022/08/29 06:11:37;;;;;;;;;2.67;2.67;;;;;25.69;45.33;99849.31;5015159;28;45462;-72
2022/08/29 06:14:03;;;;;;;;;2.67;2.67;;;;;25.59;45.58;99836.34;5015030;28;46083;-71
2022/08/29 06:16:31;;;;;;;;;2.00;2.00;;;;;25.59;45.51;99833.66;5015048;28;45567;-73
2022/08/29 06:18:57;;;;;;;;;2.00;2.00;;;;;25.70;45.21;99851.91;5014934;28;45514;-69
2022/08/29 06:21:23;;;;;;;;;2.67;2.67;;;;;25.71;45.21;99839.44;5013839;28;45461;-69
2022/08/29 06:23:49;;;;;;;;;3.00;3.00;;;;;25.85;44.30;99853.06;5014704;28;46111;-72
2022/08/29 06:26:15;;;;;;;;;4.00;3.00;;;;;25.84;44.46;99827.22;5014854;28;45522;-70
2022/08/29 06:28:46;;;;;;;;;3.33;3.00;;;;;25.99;44.81;99837.28;5013724;28;45521;-72
2022/08/29 06:31:16;;;;;;;;;3.00;3.00;;;;;26.04;44.58;99838.88;5013923;28;45551;-72
2022/08/29 06:33:41;;;;;;;;;3.00;3.00;;;;;26.02;43.95;99830.91;5011627;28;45572;-71
2022/08/29 06:36:08;;;;;;;;;3.67;3.67;;;;;26.10;44.11;99841.28;5014329;28;45551;-72
2022/08/29 06:38:34;;;;;;;;;4.00;3.33;;;;;26.19;44.01;99848.91;5014271;28;45766;-73
2022/08/29 06:41:09;;;;;;;;;2.00;2.00;;;;;26.28;43.66;99850.28;5026550;28;45565;-71
2022/08/29 06:43:35;;;;;;;;;3.00;3.00;;;;;26.38;44.34;99860.50;5013897;28;45490;-71
2022/08/29 06:46:02;;;;;;;;;4.00;4.00;;;;;26.33;44.87;99850.94;5013883;28;45482;-69
2022/08/29 06:48:27;;;;;;;;;3.33;3.33;;;;;26.28;43.95;99851.16;5014294;28;45392;-70
2022/08/29 06:50:53;;;;;;;;;2.33;2.33;;;;;26.19;43.72;99839.06;5013495;28;45443;-72
2022/08/29 06:53:20;;;;;;;;;4.67;4.00;;;;;26.26;44.10;99847.69;5013353;28;45668;-72
2022/08/29 06:55:46;;;;;;;;;3.00;3.00;;;;;26.27;43.36;99835.16;5016450;28;45399;-71
2022/08/29 06:58:11;;;;;;;;;3.33;3.00;;;;;26.40;42.43;99836.31;5016666;28;45554;-71
2022/08/29 07:00:42;;;;;;;;;5.00;5.00;;;;;26.51;43.18;99838.50;5017316;28;45736;-69
2022/08/29 07:03:08;;;;;;;;;5.00;4.67;;;;;26.59;43.87;99820.28;5015913;28;47171;-70
2022/08/29 07:05:34;;;;;;;;;5.67;5.33;;;;;26.74;43.16;99824.03;5016523;28;45672;-70
2022/08/29 07:07:59;;;;;;;;;3.67;3.67;;;;;26.89;42.62;99822.41;5016196;28;45510;-74
2022/08/29 07:10:25;;;;;;;;;8.33;8.33;;;;;27.17;42.89;99832.63;5016617;28;45514;-72
2022/08/29 07:12:52;;;;;;;;;5.00;5.00;;;;;27.19;43.84;99810.16;5016141;28;45646;-70
2022/08/29 07:15:20;;;;;;;;;5.00;4.33;;;;;27.42;43.55;99801.94;5016331;28;45367;-74
2022/08/29 07:17:46;;;;;;;;;5.00;5.00;;;;;29.47;40.31;99813.84;5012602;28;45601;-75
2022/08/29 07:20:13;;;;;;;;;5.00;5.00;;;;;33.11;34.91;99806.47;5017286;28;45542;-71
2022/08/29 07:22:38;;;;;;;;;4.33;4.00;;;;;35.39;31.30;99816.22;5017050;28;46118;-71
2022/08/29 07:25:05;;;;;;;;;4.67;4.67;;;;;37.18;28.97;99808.56;5014676;28;45506;-71
2022/08/29 07:27:33;;;;;;;;;4.00;4.00;;;;;38.71;27.68;99803.81;5013147;28;45459;-70
2022/08/29 07:30:01;;;;;;;;;4.67;4.00;;;;;39.99;26.44;99809.91;5015957;28;46333;-70
2022/08/29 07:32:27;;;;;;;;;4.00;4.00;;;;;39.91;27.03;99829.00;5017181;28;45506;-71
2022/08/29 07:34:53;;;;;;;;;4.67;4.67;;;;;41.13;25.62;99820.44;5015992;28;53386;-70
2022/08/29 07:37:19;;;;;;;;;4.67;4.33;;;;;42.20;21.95;99820.38;5017545;28;45422;-71
2022/08/29 07:39:44;;;;;;;;;3.67;3.67;;;;;42.90;21.87;99818.72;5017890;28;45442;-71
2022/08/29 07:42:10;;;;;;;;;5.00;4.67;;;;;43.67;22.16;99817.75;5017681;28;46192;-69
2022/08/29 07:44:35;;;;;;;;;4.00;4.00;;;;;44.24;20.33;99802.56;5018222;28;45556;-70
2022/08/29 07:47:01;;;;;;;;;3.67;3.33;;;;;43.98;22.15;99803.84;5017963;28;45554;-71
2022/08/29 07:49:29;;;;;;;;;3.67;3.33;;;;;41.31;23.24;99797.53;5018184;28;45607;-71
2022/08/29 07:51:55;;;;;;;;;3.67;3.67;;;;;39.19;26.49;99793.56;5017255;28;45471;-72
2022/08/29 07:54:21;;;;;;;;;4.00;3.67;;;;;37.92;27.04;99810.63;5016775;28;45702;-71
2022/08/29 07:56:49;;;;;;;;;5.33;5.33;;;;;37.34;28.37;99818.88;5017176;28;45496;-71
2022/08/29 07:59:16;;;;;;;;;5.33;5.00;;;;;37.11;29.11;99815.56;5017181;28;45514;-69
2022/08/29 08:01:42;;;;;;;;;5.00;5.00;;;;;36.73;30.96;99826.25;5016407;28;45436;-70
2022/08/29 08:04:09;;;;;;;;;4.00;4.00;;;;;38.34;28.63;99810.19;5016079;28;45346;-70
2022/08/29 08:06:36;;;;;;;;;4.00;4.00;;;;;39.60;27.13;99793.91;5016789;28;45569;-70
2022/08/29 08:09:06;;;;;;;;;4.67;4.00;;;;;42.26;25.20;99813.31;5017366;28;45519;-69
2022/08/29 08:11:32;;;;;;;;;6.67;6.33;;;;;44.36;22.19;99824.94;5016032;28;45412;-70
2022/08/29 08:13:58;;;;;;;;;5.67;5.00;;;;;45.45;19.66;99811.16;5016915;28;45369;-67
2022/08/29 08:16:26;;;;;;;;;4.67;4.67;;;;;46.77;19.59;99826.81;5015558;28;45381;-68
2022/08/29 08:18:52;;;;;;;;;4.33;4.33;;;;;47.09;18.97;99827.13;5016541;28;45380;-68
2022/08/29 08:21:18;;;;;;;;;4.67;4.33;;;;;45.52;19.88;99812.03;5016914;28;46292;-68
2022/08/29 08:23:44;;;;;;;;;5.00;5.00;;;;;44.06;21.74;99819.44;5018016;28;45802;-68
2022/08/29 08:26:11;;;;;;;;;6.67;6.00;;;;;42.96;22.50;99822.59;5017136;28;45744;-68
2022/08/29 08:28:37;;;;;;;;;4.00;4.00;;;;;41.65;24.32;99818.44;5018053;28;45481;-68
2022/08/29 08:31:08;;;;;;;;;4.67;4.67;;;;;40.60;25.99;99815.34;5016924;28;45471;-71
2022/08/29 08:33:37;;;;;;;;;5.67;5.67;;;;;41.07;25.40;99823.84;5017065;28;45782;-71
2022/08/29 08:36:11;;;;;;;;;6.33;6.00;;;;;42.28;24.23;99812.13;5016364;28;45563;-71
2022/08/29 08:38:36;;;;;;;;;4.33;4.00;;;;;42.38;24.16;99817.41;5016950;28;45311;-71
2022/08/29 08:41:28;;;;;;;;;3.33;3.33;;;;;43.80;22.54;99825.41;5016087;28;45529;-70
2022/08/29 08:44:09;;;;;;;;;6.33;5.33;;;;;43.45;22.74;99828.59;5016548;28;45497;-70
2022/08/29 08:46:42;;;;;;;;;3.67;3.67;;;;;42.18;23.87;99825.16;5009601;28;45317;-71
2022/08/29 08:49:18;;;;;;;;;4.00;4.00;;;;;42.05;23.90;99828.47;5016722;28;45650;-70
2022/08/29 08:51:50;;;;;;;;;4.33;4.33;;;;;41.20;22.50;99817.91;5016946;28;46266;-69
2022/08/29 08:54:22;;;;;;;;;4.67;4.00;;;;;40.40;24.33;99815.59;5016871;28;45388;-70
2022/08/29 08:56:55;;;;;;;;;4.67;4.67;;;;;40.85;25.50;99797.09;5017849;28;45442;-72
2022/08/29 08:59:42;;;;;;;;;2.00;1.67;;;;;42.54;25.25;99800.03;5018028;28;45206;-71
2022/08/29 09:02:16;;;;;;;;;5.00;4.00;;;;;43.95;23.42;99806.13;5017161;28;46364;-70
2022/08/29 09:05:05;;;;;;;;;3.67;3.67;;;;;43.87;22.78;99813.47;5017476;28;45528;-70
2022/08/29 09:07:46;;;;;;;;;4.67;4.33;;;;;42.48;24.06;99796.09;5017243;28;45461;-71
2022/08/29 09:10:15;;;;;;;;;4.00;4.00;;;;;41.63;25.43;99796.66;5017896;28;45236;-70
2022/08/29 09:12:48;;;;;;;;;5.67;4.33;;;;;40.80;26.86;99808.56;5031941;28;46406;-70
2022/08/29 09:15:24;;;;;;;;;4.33;4.33;;;;;40.73;28.15;99791.09;5015096;28;45383;-71
2022/08/29 09:17:59;;;;;;;;;7.00;6.00;;;;;42.00;26.97;99792.44;5016614;28;45699;-71
2022/08/29 09:20:29;;;;;;;;;3.33;3.33;;;;;43.03;25.23;99785.97;5016774;28;45406;-70
2022/08/29 09:23:09;;;;;;;;;4.00;4.00;;;;;43.67;24.79;99810.41;5015425;28;45506;-70
2022/08/29 09:25:35;;;;;;;;;4.00;4.00;;;;;43.22;24.03;99797.53;5016170;28;45652;-70
2022/08/29 09:28:03;;;;;;;;;4.33;4.00;;;;;41.53;25.83;99805.03;5016231;28;45382;-70
2022/08/29 09:30:32;;;;;;;;;9.67;9.00;;;;;41.03;26.30;99803.31;5016578;28;45528;-70
2022/08/29 09:33:06;;;;;;;;;4.33;4.33;;;;;41.24;25.68;99802.81;5015386;28;45391;-70
2022/08/29 09:35:42;;;;;;;;;6.00;5.00;;;;;41.79;25.56;99794.94;5014495;28;45479;-71
2022/08/29 09:38:17;;;;;;;;;4.67;4.33;;;;;41.45;24.42;99809.69;5015568;28;45481;-70
2022/08/29 09:40:57;;;;;;;;;4.00;4.00;;;;;41.02;25.72;99806.22;5016594;28;45596;-70
2022/08/29 09:43:38;;;;;;;;;6.33;6.33;;;;;40.05;24.55;99820.22;5013766;28;47922;-70
2022/08/29 09:46:06;;;;;;;;;4.33;4.00;;;;;39.33;23.31;99820.31;5015460;28;45530;-70
2022/08/29 09:48:33;;;;;;;;;5.33;4.67;;;;;38.96;24.38;99810.41;5022469;28;45383;-71
2022/08/29 09:51:29;;;;;;;;;5.00;5.00;;;;;39.21;25.47;99827.03;5013108;28;45395;-72
2022/08/29 09:54:21;;;;;;;;;4.67;4.67;;;;;39.13;25.29;99827.81;5001403;28;45882;-72
2022/08/29 09:56:52;;;;;;;;;5.67;5.00;;;;;39.11;25.98;99829.00;5005916;28;46033;-70
2022/08/29 09:59:38;;;;;;;;;3.67;3.67;;;;;38.99;24.91;99821.03;5021104;28;46208;-68
2022/08/29 10:02:19;;;;;;;;;6.00;5.33;;;;;39.01;24.44;99825.50;5025043;28;45403;-69
2022/08/29 10:04:54;;;;;;;;;4.00;3.33;;;;;39.00;26.66;99802.78;5014095;28;45431;-70
2022/08/29 10:07:23;;;;;;;;;4.67;4.67;;;;;38.71;26.50;99745.66;5014329;28;46214;-70
2022/08/29 10:10:14;;;;;;;;;5.00;5.00;;;;;38.91;27.10;99749.06;5014008;28;45411;-70
2022/08/29 10:12:52;;;;;;;;;5.00;4.67;;;;;39.17;26.24;99815.56;5014348;28;45502;-69
2022/08/29 10:15:24;;;;;;;;;5.00;4.00;;;;;39.12;27.36;99803.41;5030711;28;45865;-70
2022/08/29 10:21:09;;;;;;;;;4.67;4.67;;;;;39.65;28.06;99812.56;4998838;28;45451;-70
2022/08/29 10:24:02;;;;;;;;;7.67;6.67;;;;;40.43;26.82;99819.88;5014504;28;45457;-70
2022/08/29 10:26:57;;;;;;;;;5.67;5.67;;;;;41.12;26.12;99815.97;5028596;28;45530;-70
2022/08/29 10:29:52;;;;;;;;;5.00;5.00;;;;;41.01;25.97;99807.22;4999786;28;45605;-71
2022/08/29 10:32:38;;;;;;;;;4.00;4.00;;;;;41.43;26.15;99819.97;4995197;28;45864;-69
2022/08/29 10:35:16;;;;;;;;;6.00;6.00;;;;;41.09;26.10;99799.88;5017936;28;45443;-69
2022/08/29 10:37:57;;;;;;;;;5.00;5.00;;;;;40.37;22.11;99810.44;5017798;28;46269;-70
2022/08/29 10:40:36;;;;;;;;;6.00;5.67;;;;;39.55;21.59;99808.06;5007652;28;45479;-71
2022/08/29 10:43:22;;;;;;;;;5.00;5.00;;;;;39.43;22.37;99817.53;5031627;28;45467;-70
2022/08/29 10:46:08;;;;;;;;;14.00;13.33;;;;;39.45;23.18;99814.63;4976263;28;45368;-71
2022/08/29 10:48:42;;;;;;;;;6.00;5.67;;;;;39.53;23.46;99818.28;5016883;28;45323;-70
2022/08/29 10:51:35;;;;;;;;;4.00;4.00;;;;;39.52;23.52;99826.66;5003975;28;45455;-70
2022/08/29 10:54:36;;;;;;;;;5.00;4.67;;;;;40.07;24.17;99842.78;5002727;28;45747;-70
2022/08/29 10:57:04;;;;;;;;;7.33;6.67;;;;;40.65;23.64;99841.19;5002913;28;45298;-70
2022/08/29 10:59:29;;;;;;;;;6.67;5.33;;;;;40.85;23.35;99852.75;5013442;28;46700;-70
2022/08/29 11:01:59;;;;;;;;;4.67;4.67;;;;;41.09;22.92;99849.19;5016791;28;45558;-70
2022/08/29 11:04:39;;;;;;;;;6.00;5.00;;;;;41.42;22.16;99848.41;5017230;28;45446;-71
2022/08/29 11:07:40;;;;;;;;;4.33;4.00;;;;;41.56;21.91;99861.41;5018981;28;45570;-70
2022/08/29 11:10:14;;;;;;;;;6.00;5.00;;;;;41.66;22.64;99856.63;4972605;28;46661;-71
2022/08/29 11:13:04;;;;;;;;;7.33;7.33;;;;;41.65;23.12;99882.34;5006411;28;45499;-70
2022/08/29 11:15:32;;;;;;;;;4.00;4.00;;;;;41.56;22.71;99887.97;5001723;28;45630;-70
2022/08/29 11:18:07;;;;;;;;;5.00;5.00;;;;;41.32;22.54;99898.75;5016320;28;45575;-71
2022/08/29 11:20:41;;;;;;;;;4.67;4.33;;;;;41.18;23.59;99907.63;5016267;28;46348;-69
2022/08/29 11:23:15;;;;;;;;;7.00;7.00;;;;;41.31;23.00;99907.16;4999974;28;45606;-71
2022/08/29 11:25:42;;;;;;;;;6.33;6.33;;;;;41.15;24.87;99900.59;5016696;28;45422;-70
2022/08/29 11:28:24;;;;;;;;;5.00;5.00;;;;;40.03;27.67;99917.09;5016210;28;45598;-70
2022/08/29 11:31:02;;;;;;;;;7.33;6.67;;;;;39.81;27.83;99913.84;5016018;28;46207;-71
2022/08/29 11:33:30;;;;;;;;;6.00;5.67;;;;;39.43;28.01;99909.59;5016713;28;45455;-71
2022/08/29 11:35:56;;;;;;;;;6.33;6.00;;;;;39.36;28.70;99906.59;5016275;28;45538;-70
2022/08/29 11:38:44;;;;;;;;;8.67;8.33;;;;;39.54;28.78;99928.50;5016725;28;45633;-69
2022/08/29 11:41:21;;;;;;;;;5.67;5.67;;;;;38.95;29.13;99933.44;5016616;28;45644;-68
2022/08/29 11:43:50;;;;;;;;;7.67;7.00;;;;;38.41;28.64;99935.94;5014716;28;45798;-69
2022/08/29 11:46:47;;;;;;;;;6.00;5.33;;;;;38.05;29.98;99940.31;5016341;28;45399;-70
2022/08/29 11:49:34;;;;;;;;;5.67;5.67;;;;;37.57;30.74;99937.44;5016711;28;45293;-68
2022/08/29 11:52:16;;;;;;;;;6.67;5.67;;;;;36.76;31.16;99936.69;5015937;28;45722;-69